ADDS METAR Data INFO
IDs: Format: Raw Decoded Include TAF

Data at: 1314 UTC 19 Jul 2018

KLYV 191255Z AUTO 21006KT 4SM BR OVC023 20/18 A2975 RMK AO2 LTG DSNT E
KLYV 191235Z AUTO 21008KT 4SM BR SCT009 SCT015 OVC026 20/18 A2975 RMK AO2 LTG DSNT NE AND E
KLYV 191215Z AUTO 21009KT 3SM BR BKN007 OVC011 20/18 A2975 RMK AO2 LTG DSNT NE AND E
KLYV 191155Z AUTO 20009KT 4SM BR BKN005 OVC010 20/18 A2975 RMK AO2 LTG DSNT NE THRU SE
KLYV 191136Z AUTO 18009KT 7SM VCTS OVC007 20/18 A2976 RMK AO2 LTG DSNT NE
KLYV 191115Z AUTO 17008KT 7SM VCTSRA OVC007 20/17 A2976 RMK AO2 LTG DSNT N THRU SE
KLYV 191055Z AUTO 17009KT 10SM -TSDZ OVC009 20/18 A2977 RMK AO2 LTG DSNT NW THRU NE P0002
KLYV 191036Z AUTO 18004KT 10SM -TSRA SCT009 BKN014 BKN060 20/18 A2979 RMK AO2 LTG DSNT ALQS P0002
KLYV 191015Z AUTO 17008KT 10SM SCT021 SCT060 BKN080 20/17 A2978 RMK AO2 LTG DSNT NW
KLYV 190955Z AUTO 16007KT 10SM BKN013 BKN022 OVC100 20/17 A2978 RMK AO2 LTG DSNT N AND W
KLYV 190935Z AUTO 16006KT 10SM -RA OVC015 20/17 A2980 RMK AO2 LTG DSNT N THRU SE
KLYV 190915Z AUTO 17003KT 10SM SCT017 BKN023 OVC120 20/17 A2981 RMK AO2 LTG DSNT N THRU SE
KLYV 190855Z AUTO 16007KT 10SM BKN025 BKN033 BKN039 20/17 A2981 RMK AO2
KLYV 190835Z AUTO 15007KT 10SM BKN027 OVC039 21/17 A2981 RMK AO2
KLYV 190815Z AUTO 17007KT 10SM SCT029 BKN035 OVC042 20/17 A2982 RMK AO2 LTG DSNT N
KLYV 190755Z AUTO 18009KT 10SM BKN035 OVC041 21/17 A2983 RMK AO2 LTG DSNT N AND NE
KLYV 190735Z AUTO 16007KT 10SM VCTS BKN037 OVC045 21/17 A2983 RMK AO2 LTG DSNT N AND NE
KLYV 190715Z AUTO 15008KT 10SM SCT039 BKN049 OVC060 21/17 A2983 RMK AO2 LTG DSNT N
KLYV 190655Z AUTO 14008KT 10SM BKN041 BKN049 BKN065 20/18 A2984 RMK AO2 LTG DSNT N AND SW
KLYV 190635Z AUTO 15008KT 10SM BKN041 BKN049 OVC065 21/18 A2985 RMK AO2 LTG DSNT N
KLYV 190615Z AUTO 14006KT 10SM RA OVC041 20/18 A2985 RMK AO2 LTG DSNT N
KLYV 190555Z AUTO 15007KT 10SM BKN041 OVC050 20/18 A2987 RMK AO2 LTG DSNT SW AND NW
KLYV 190535Z AUTO 15006KT 10SM SCT033 OVC047 20/18 A2988 RMK AO2 LTG DSNT NW
KLYV 190515Z AUTO 14005KT 10SM BKN031 BKN042 BKN120 20/18 A2989 RMK AO2
KLYV 190455Z AUTO 15006KT 10SM SCT080 SCT120 20/18 A2990 RMK AO2
KLYV 190435Z AUTO 15005KT 10SM SCT120 20/18 A2991 RMK AO2 LTG DSNT N AND NW
KLYV 190415Z AUTO 14005KT 10SM SCT049 SCT060 OVC120 20/18 A2992 RMK AO2
KLYV 190355Z AUTO 15007KT 10SM SCT039 OVC049 20/18 A2992 RMK AO2 LTG DSNT N AND NE P0004
KLYV 190335Z AUTO 12005KT 10SM -RA SCT026 BKN039 OVC120 20/18 A2992 RMK AO2 LTG DSNT N AND NW P0004
KLYV 190315Z AUTO 00000KT 7SM RA SCT026 SCT044 OVC110 20/18 A2992 RMK AO2 LTG DSNT E P0001
KLYV 190255Z AUTO 13006KT 10SM RA SCT026 BKN048 OVC100 21/18 A2992 RMK AO2 LTG DSNT E SW AND NW P0011
KLYV 190235Z AUTO 15006G15KT 5SM -RA SCT014 BKN040 OVC050 21/18 A2993 RMK AO2 LTG DSNT E P0011
KLYV 190215Z AUTO 00000KT 10SM BKN040 BKN045 OVC055 22/18 A2992 RMK AO2 LTG DSNT NE AND NW
KLYV 190155Z AUTO 10003KT 10SM -RA OVC043 22/18 A2992 RMK AO2 LTG DSNT NE AND SW
KLYV 190135Z AUTO 13003KT 10SM BKN043 BKN050 OVC065 22/18 A2993 RMK AO2 LTG DSNT N
KLYV 190115Z AUTO 11003KT 10SM SCT029 BKN065 OVC120 22/17 A2993 RMK AO2
KLYV 190055Z AUTO 11003KT 10SM RA SCT024 SCT037 BKN050 22/17 A2994 RMK AO2 LTG DSNT N
KLYV 190035Z AUTO 13005KT 10SM SCT050 SCT065 BKN110 23/17 A2993 RMK AO2 LTG DSNT N
KLYV 190015Z AUTO 14005KT 10SM SCT036 SCT050 BKN065 23/16 A2995 RMK AO2
KLYV 182355Z AUTO 15006KT 10SM -RA SCT038 SCT075 SCT120 24/17 A2995 RMK AO2 LTG DSNT N
KLYV 182335Z AUTO 15005KT 10SM CLR 24/16 A2995 RMK AO2 LTG DSNT NW
KLYV 182315Z AUTO 15008KT 10SM CLR 25/15 A2995 RMK AO2 LTG DSNT NW
KLYV 182255Z AUTO 16010G15KT 10SM SCT070 25/15 A2995 RMK AO2
KLYV 182235Z AUTO 16009G14KT 10SM SCT070 25/16 A2997 RMK AO2
KLYV 182215Z AUTO 14012G15KT 10SM SCT070 26/16 A2997 RMK AO2 LTG DSNT W
KLYV 182155Z AUTO 16010KT 10SM SCT070 SCT110 26/17 A2997 RMK AO2
KLYV 182135Z AUTO 16010KT 130V190 10SM SCT120 26/17 A2999 RMK AO2
KLYV 182115Z AUTO 15009KT 10SM BKN110 26/17 A3000 RMK AO2
KLYV 182055Z AUTO 16006KT 10SM SCT055 SCT110 26/17 A3000 RMK AO2
KLYV 182035Z AUTO 16008KT 10SM SCT055 BKN075 26/17 A3001 RMK AO2
KLYV 182016Z AUTO 18008G14KT 10SM BKN055 BKN075 26/17 A3002 RMK AO2
KLYV 181955Z AUTO 18013KT 10SM SCT075 25/16 A3003 RMK AO2
KLYV 181935Z AUTO 16010G14KT 10SM CLR 25/15 A3002 RMK AO2
KLYV 181916Z AUTO 16008KT 10SM CLR 25/16 A3002 RMK AO2
KLYV 181855Z AUTO 16007KT 10SM CLR 25/16 A3003 RMK AO2
KLYV 181835Z AUTO 15009KT 10SM CLR 25/15 A3004 RMK AO2
KLYV 181815Z AUTO 16007KT 10SM CLR 25/16 A3005 RMK AO2
KLYV 181755Z AUTO 14011KT 10SM CLR 25/16 A3004 RMK AO2
KLYV 181735Z AUTO 13008KT 10SM CLR 25/17 A3004 RMK AO2
KLYV 181715Z AUTO 15007KT 10SM CLR 25/16 A3005 RMK AO2
KLYV 181655Z AUTO 15007KT 10SM CLR 25/15 A3006 RMK AO2
KLYV 181635Z AUTO 16008KT 10SM CLR 25/15 A3006 RMK AO2
KLYV 181615Z AUTO 14008KT 10SM CLR 25/16 A3007 RMK AO2
KLYV 181555Z AUTO 17007KT 10SM CLR 23/16 A3007 RMK AO2
KLYV 181535Z AUTO 15005KT 10SM CLR 24/16 A3007 RMK AO2
KLYV 181515Z AUTO 13007KT 10SM CLR 24/17 A3007 RMK AO2
KLYV 181455Z AUTO 17005KT 10SM CLR 22/16 A3007 RMK AO2
KLYV 181435Z AUTO 17004KT 10SM CLR 22/17 A3008 RMK AO2
KLYV 181415Z AUTO 15004KT 10SM CLR 21/17 A3009 RMK AO2
KLYV 181355Z AUTO 16004KT 10SM CLR 20/17 A3009 RMK AO2
KLYV 181335Z AUTO 15003KT 10SM CLR 19/16 A3009 RMK AO2
KLYV 181315Z AUTO 14003KT 10SM CLR 19/16 A3010 RMK AO2
KLYV 181255Z AUTO 14003KT 10SM CLR 18/16 A3011 RMK AO2
KLYV 181235Z AUTO 00000KT 10SM CLR 18/16 A3011 RMK AO2
KLYV 181215Z AUTO 00000KT 10SM CLR 17/15 A3011 RMK AO2
KLYV 181155Z AUTO 00000KT 10SM CLR 17/15 A3011 RMK AO2
KLYV 181135Z AUTO 00000KT 10SM CLR 16/14 A3010 RMK AO2
KLYV 181115Z AUTO 00000KT 10SM CLR 16/15 A3009 RMK AO2
KLYV 181055Z AUTO 00000KT 10SM CLR 16/15 A3009 RMK AO2
KLYV 181035Z AUTO 00000KT 10SM CLR 17/15 A3010 RMK AO2
KLYV 181015Z AUTO 00000KT 10SM CLR 16/15 A3011 RMK AO2
KLYV 180955Z AUTO 00000KT 10SM CLR 17/15 A3010 RMK AO2
KLYV 180935Z AUTO 00000KT 10SM CLR 17/15 A3010 RMK AO2
KLYV 180915Z AUTO 00000KT 10SM CLR 17/15 A3010 RMK AO2
KLYV 180855Z AUTO 00000KT 10SM CLR 17/16 A3011 RMK AO2
KLYV 180835Z AUTO 00000KT 10SM CLR 17/15 A3011 RMK AO2
KLYV 180815Z AUTO 00000KT 10SM CLR 17/16 A3011 RMK AO2
KLYV 180755Z AUTO 00000KT 10SM CLR 17/16 A3011 RMK AO2
KLYV 180735Z AUTO 00000KT 10SM CLR 18/16 A3011 RMK AO2
KLYV 180715Z AUTO 00000KT 10SM CLR 18/16 A3011 RMK AO2
KLYV 180655Z AUTO 00000KT 10SM CLR 18/16 A3011 RMK AO2
KLYV 180635Z AUTO 00000KT 10SM CLR 18/16 A3010 RMK AO2
KLYV 180615Z AUTO 05003KT 10SM CLR 19/17 A3011 RMK AO2
KLYV 180555Z AUTO 00000KT 10SM CLR 19/17 A3011 RMK AO2
KLYV 180535Z AUTO 00000KT 10SM CLR 18/16 A3011 RMK AO2
KLYV 180515Z AUTO 00000KT 10SM CLR 18/16 A3011 RMK AO2
KLYV 180455Z AUTO 00000KT 10SM CLR 20/16 A3011 RMK AO2
KLYV 180435Z AUTO 00000KT 10SM CLR 20/16 A3011 RMK AO2
KLYV 180415Z AUTO 00000KT 10SM CLR 20/17 A3010 RMK AO2
KLYV 180355Z AUTO 00000KT 10SM CLR 20/18 A3010 RMK AO2
KLYV 180335Z AUTO 00000KT 10SM CLR 21/18 A3010 RMK AO2
KLYV 180315Z AUTO 00000KT 10SM CLR 21/18 A3010 RMK AO2
KLYV 180255Z AUTO 00000KT 10SM CLR 22/18 A3010 RMK AO2
KLYV 180235Z AUTO 00000KT 10SM CLR 22/17 A3009 RMK AO2
KLYV 180215Z AUTO 00000KT 10SM CLR 22/18 A3009 RMK AO2
KLYV 180155Z AUTO 00000KT 10SM CLR 22/18 A3010 RMK AO2
KLYV 180135Z AUTO 00000KT 10SM CLR 23/18 A3010 RMK AO2
KLYV 180115Z AUTO 23003KT 10SM CLR 25/18 A3010 RMK AO2